sensor_id;sensor_type;location;lat;lon;timestamp;pressure;altitude;pressure_sealevel;temperature;humidity
29121;BME280;16191;49.548;8.658;2023-03-26T00:01:26;99875.31;;;8.08;100.00
29121;BME280;16191;49.548;8.658;2023-03-26T00:03:55;99879.66;;;8.07;100.00
29121;BME280;16191;49.548;8.658;2023-03-26T00:06:25;99880.63;;;8.05;100.00
29121;BME280;16191;49.548;8.658;2023-03-26T00:08:52;99883.09;;;8.08;100.00
29121;BME280;16191;49.548;8.658;2023-03-26T00:11:20;99880.56;;;8.06;100.00
29121;BME280;16191;49.548;8.658;2023-03-26T00:13:48;99879.88;;;8.01;100.00
29121;BME280;16191;49.548;8.658;2023-03-26T00:16:17;99886.00;;;8.00;100.00
29121;BME280;16191;49.548;8.658;2023-03-26T00:18:45;99883.31;;;8.02;100.00
29121;BME280;16191;49.548;8.658;2023-03-26T00:21:14;99886.75;;;8.02;100.00
29121;BME280;16191;49.548;8.658;2023-03-26T00:23:42;99885.31;;;7.95;100.00
29121;BME280;16191;49.548;8.658;2023-03-26T00:26:09;99881.06;;;7.93;100.00
29121;BME280;16191;49.548;8.658;2023-03-26T00:28:37;99879.22;;;7.96;100.00
29121;BME280;16191;49.548;8.658;2023-03-26T00:31:08;99880.91;;;7.97;100.00
29121;BME280;16191;49.548;8.658;2023-03-26T00:33:37;99874.13;;;7.93;100.00
29121;BME280;16191;49.548;8.658;2023-03-26T00:36:09;99881.16;;;7.89;100.00
29121;BME280;16191;49.548;8.658;2023-03-26T00:38:37;99878.69;;;7.86;100.00
29121;BME280;16191;49.548;8.658;2023-03-26T00:41:06;99878.72;;;7.85;100.00
29121;BME280;16191;49.548;8.658;2023-03-26T00:43:34;99875.94;;;7.91;100.00
29121;BME280;16191;49.548;8.658;2023-03-26T00:46:01;99876.81;;;7.90;100.00
29121;BME280;16191;49.548;8.658;2023-03-26T00:48:28;99869.19;;;7.85;100.00
29121;BME280;16191;49.548;8.658;2023-03-26T00:51:12;99875.19;;;7.87;100.00
29121;BME280;16191;49.548;8.658;2023-03-26T00:54:25;99864.84;;;7.86;100.00
29121;BME280;16191;49.548;8.658;2023-03-26T00:56:53;99861.41;;;7.85;100.00
29121;BME280;16191;49.548;8.658;2023-03-26T00:59:21;99866.59;;;7.85;100.00
29121;BME280;16191;49.548;8.658;2023-03-26T01:01:48;99855.41;;;7.83;100.00
29121;BME280;16191;49.548;8.658;2023-03-26T01:07:00;99850.00;;;7.89;100.00
29121;BME280;16191;49.548;8.658;2023-03-26T01:09:32;99845.66;;;7.90;100.00
29121;BME280;16191;49.548;8.658;2023-03-26T01:12:02;99836.84;;;7.94;100.00
29121;BME280;16191;49.548;8.658;2023-03-26T01:14:30;99834.16;;;7.97;100.00
29121;BME280;16191;49.548;8.658;2023-03-26T01:17:17;99826.41;;;7.96;100.00
29121;BME280;16191;49.548;8.658;2023-03-26T01:20:33;99821.03;;;8.00;100.00
29121;BME280;16191;49.548;8.658;2023-03-26T01:23:39;99812.56;;;7.95;100.00
29121;BME280;16191;49.548;8.658;2023-03-26T01:30:12;99815.31;;;7.90;100.00
29121;BME280;16191;49.548;8.658;2023-03-26T01:44:02;99792.78;;;7.91;100.00
29121;BME280;16191;49.548;8.658;2023-03-26T01:46:32;99780.72;;;7.90;100.00
29121;BME280;16191;49.548;8.658;2023-03-26T01:49:03;99788.56;;;7.88;100.00
29121;BME280;16191;49.548;8.658;2023-03-26T01:51:33;99772.97;;;7.88;100.00
29121;BME280;16191;49.548;8.658;2023-03-26T01:54:03;99776.53;;;7.86;100.00
29121;BME280;16191;49.548;8.658;2023-03-26T02:02:09;99752.25;;;7.87;100.00
29121;BME280;16191;49.548;8.658;2023-03-26T02:07:26;99744.16;;;7.95;100.00
29121;BME280;16191;49.548;8.658;2023-03-26T02:10:06;99737.44;;;7.89;100.00
29121;BME280;16191;49.548;8.658;2023-03-26T02:12:39;99739.13;;;7.90;100.00
29121;BME280;16191;49.548;8.658;2023-03-26T02:15:07;99735.63;;;7.91;100.00
29121;BME280;16191;49.548;8.658;2023-03-26T02:17:34;99727.84;;;7.91;100.00
29121;BME280;16191;49.548;8.658;2023-03-26T02:20:00;99731.41;;;7.88;100.00
29121;BME280;16191;49.548;8.658;2023-03-26T02:22:33;99721.88;;;7.89;100.00
29121;BME280;16191;49.548;8.658;2023-03-26T02:25:09;99713.22;;;7.88;100.00
29121;BME280;16191;49.548;8.658;2023-03-26T02:27:37;99703.56;;;7.92;100.00
29121;BME280;16191;49.548;8.658;2023-03-26T02:30:08;99699.44;;;7.86;100.00
29121;BME280;16191;49.548;8.658;2023-03-26T02:32:35;99702.03;;;7.86;100.00
29121;BME280;16191;49.548;8.658;2023-03-26T02:35:02;99699.38;;;7.88;100.00
29121;BME280;16191;49.548;8.658;2023-03-26T02:37:31;99688.09;;;7.89;100.00
29121;BME280;16191;49.548;8.658;2023-03-26T02:40:07;99691.44;;;7.93;100.00
29121;BME280;16191;49.548;8.658;2023-03-26T02:42:39;99681.16;;;7.89;100.00
29121;BME280;16191;49.548;8.658;2023-03-26T02:45:07;99682.00;;;7.90;100.00
29121;BME280;16191;49.548;8.658;2023-03-26T02:47:52;99668.84;;;7.95;100.00
29121;BME280;16191;49.548;8.658;2023-03-26T02:50:40;99657.59;;;7.94;100.00
29121;BME280;16191;49.548;8.658;2023-03-26T02:53:36;99656.69;;;7.95;100.00
29121;BME280;16191;49.548;8.658;2023-03-26T02:56:23;99658.44;;;7.95;100.00
29121;BME280;16191;49.548;8.658;2023-03-26T02:59:03;99651.22;;;8.01;100.00
29121;BME280;16191;49.548;8.658;2023-03-26T03:01:29;99652.91;;;8.02;100.00
29121;BME280;16191;49.548;8.658;2023-03-26T03:04:02;99645.13;;;8.02;100.00
29121;BME280;16191;49.548;8.658;2023-03-26T03:06:34;99639.22;;;7.99;100.00
29121;BME280;16191;49.548;8.658;2023-03-26T03:09:00;99637.31;;;8.02;100.00
29121;BME280;16191;49.548;8.658;2023-03-26T03:11:34;99633.81;;;8.03;100.00
29121;BME280;16191;49.548;8.658;2023-03-26T03:14:02;99620.06;;;8.01;100.00
29121;BME280;16191;49.548;8.658;2023-03-26T03:16:30;99612.13;;;8.04;100.00
29121;BME280;16191;49.548;8.658;2023-03-26T03:19:17;99604.56;;;8.00;100.00
29121;BME280;16191;49.548;8.658;2023-03-26T03:21:45;99608.91;;;7.99;100.00
29121;BME280;16191;49.548;8.658;2023-03-26T03:24:12;99610.66;;;7.99;100.00
29121;BME280;16191;49.548;8.658;2023-03-26T03:26:43;99603.81;;;7.96;100.00
29121;BME280;16191;49.548;8.658;2023-03-26T03:29:34;99604.66;;;7.97;100.00
29121;BME280;16191;49.548;8.658;2023-03-26T03:32:19;99600.09;;;8.02;100.00
29121;BME280;16191;49.548;8.658;2023-03-26T03:34:49;99598.50;;;7.99;100.00
29121;BME280;16191;49.548;8.658;2023-03-26T03:37:17;99600.09;;;8.02;100.00
29121;BME280;16191;49.548;8.658;2023-03-26T03:39:49;99591.41;;;8.03;100.00
29121;BME280;16191;49.548;8.658;2023-03-26T03:42:19;99587.13;;;8.02;100.00
29121;BME280;16191;49.548;8.658;2023-03-26T03:44:48;99586.16;;;8.04;100.00
29121;BME280;16191;49.548;8.658;2023-03-26T03:47:45;99585.13;;;8.08;100.00
29121;BME280;16191;49.548;8.658;2023-03-26T03:50:13;99576.38;;;8.11;100.00
29121;BME280;16191;49.548;8.658;2023-03-26T03:52:51;99577.28;;;8.10;100.00
29121;BME280;16191;49.548;8.658;2023-03-26T03:55:18;99571.03;;;8.14;100.00
29121;BME280;16191;49.548;8.658;2023-03-26T03:57:50;99564.22;;;8.11;100.00
29121;BME280;16191;49.548;8.658;2023-03-26T04:00:19;99564.88;;;8.16;100.00
29121;BME280;16191;49.548;8.658;2023-03-26T04:03:02;99553.50;;;8.19;100.00
29121;BME280;16191;49.548;8.658;2023-03-26T04:05:32;99552.72;;;8.17;100.00
29121;BME280;16191;49.548;8.658;2023-03-26T04:07:59;99551.88;;;8.16;100.00
29121;BME280;16191;49.548;8.658;2023-03-26T04:10:25;99545.78;;;8.17;100.00
29121;BME280;16191;49.548;8.658;2023-03-26T04:13:11;99540.28;;;8.23;100.00
29121;BME280;16191;49.548;8.658;2023-03-26T04:15:58;99536.03;;;8.22;100.00
29121;BME280;16191;49.548;8.658;2023-03-26T04:18:25;99530.69;;;8.25;100.00
29121;BME280;16191;49.548;8.658;2023-03-26T04:20:55;99520.94;;;8.31;100.00
29121;BME280;16191;49.548;8.658;2023-03-26T04:23:25;99516.56;;;8.33;100.00
29121;BME280;16191;49.548;8.658;2023-03-26T04:26:05;99501.84;;;8.32;100.00
29121;BME280;16191;49.548;8.658;2023-03-26T04:28:57;99495.78;;;8.31;100.00
29121;BME280;16191;49.548;8.658;2023-03-26T04:31:28;99491.34;;;8.35;100.00
29121;BME280;16191;49.548;8.658;2023-03-26T04:34:03;99481.84;;;8.34;100.00
29121;BME280;16191;49.548;8.658;2023-03-26T04:36:32;99481.00;;;8.33;100.00
29121;BME280;16191;49.548;8.658;2023-03-26T04:39:02;99482.75;;;8.33;100.00
29121;BME280;16191;49.548;8.658;2023-03-26T04:41:49;99477.56;;;8.33;100.00
29121;BME280;16191;49.548;8.658;2023-03-26T04:44:17;99475.00;;;8.31;100.00
29121;BME280;16191;49.548;8.658;2023-03-26T04:46:58;99465.34;;;8.35;100.00
29121;BME280;16191;49.548;8.658;2023-03-26T04:49:34;99459.25;;;8.36;100.00
29121;BME280;16191;49.548;8.658;2023-03-26T04:52:01;99451.25;;;8.40;100.00
29121;BME280;16191;49.548;8.658;2023-03-26T04:54:57;99445.00;;;8.44;100.00
29121;BME280;16191;49.548;8.658;2023-03-26T04:57:29;99438.25;;;8.40;100.00
29121;BME280;16191;49.548;8.658;2023-03-26T05:00:14;99432.75;;;8.46;100.00
29121;BME280;16191;49.548;8.658;2023-03-26T05:02:49;99439.69;;;8.46;100.00
29121;BME280;16191;49.548;8.658;2023-03-26T05:05:17;99430.94;;;8.48;100.00
29121;BME280;16191;49.548;8.658;2023-03-26T05:07:44;99426.56;;;8.49;100.00
29121;BME280;16191;49.548;8.658;2023-03-26T05:10:14;99429.94;;;8.51;100.00
29121;BME280;16191;49.548;8.658;2023-03-26T05:12:51;99416.03;;;8.52;100.00
29121;BME280;16191;49.548;8.658;2023-03-26T05:15:32;99410.19;;;8.47;100.00
29121;BME280;16191;49.548;8.658;2023-03-26T05:18:11;99401.47;;;8.48;100.00
29121;BME280;16191;49.548;8.658;2023-03-26T05:20:41;99397.97;;;8.49;100.00
29121;BME280;16191;49.548;8.658;2023-03-26T05:23:09;99396.16;;;8.51;100.00
29121;BME280;16191;49.548;8.658;2023-03-26T05:25:39;99395.44;;;8.47;100.00
29121;BME280;16191;49.548;8.658;2023-03-26T05:28:14;99390.75;;;8.55;100.00
29121;BME280;16191;49.548;8.658;2023-03-26T05:30:54;99391.66;;;8.54;100.00
29121;BME280;16191;49.548;8.658;2023-03-26T05:33:22;99387.38;;;8.53;100.00
29121;BME280;16191;49.548;8.658;2023-03-26T05:36:05;99391.44;;;8.59;100.00
29121;BME280;16191;49.548;8.658;2023-03-26T05:38:32;99385.47;;;8.57;100.00
29121;BME280;16191;49.548;8.658;2023-03-26T05:41:03;99377.03;;;8.52;100.00
29121;BME280;16191;49.548;8.658;2023-03-26T05:43:32;99376.31;;;8.48;100.00
29121;BME280;16191;49.548;8.658;2023-03-26T05:46:15;99364.88;;;8.52;100.00
29121;BME280;16191;49.548;8.658;2023-03-26T05:48:42;99363.81;;;8.56;100.00
29121;BME280;16191;49.548;8.658;2023-03-26T05:51:09;99360.31;;;8.57;100.00
29121;BME280;16191;49.548;8.658;2023-03-26T05:53:40;99356.09;;;8.55;100.00
29121;BME280;16191;49.548;8.658;2023-03-26T05:56:24;99349.91;;;8.57;100.00
29121;BME280;16191;49.548;8.658;2023-03-26T05:59:14;99347.31;;;8.57;100.00
29121;BME280;16191;49.548;8.658;2023-03-26T06:02:00;99341.53;;;8.51;100.00
29121;BME280;16191;49.548;8.658;2023-03-26T06:04:52;99343.22;;;8.52;100.00
29121;BME280;16191;49.548;8.658;2023-03-26T06:07:29;99337.19;;;8.51;100.00
29121;BME280;16191;49.548;8.658;2023-03-26T06:10:07;99331.78;;;8.56;100.00
29121;BME280;16191;49.548;8.658;2023-03-26T06:12:35;99330.09;;;8.55;100.00
29121;BME280;16191;49.548;8.658;2023-03-26T06:15:03;99322.22;;;8.56;100.00
29121;BME280;16191;49.548;8.658;2023-03-26T06:17:41;99323.91;;;8.57;100.00
29121;BME280;16191;49.548;8.658;2023-03-26T06:20:31;99319.63;;;8.56;100.00
29121;BME280;16191;49.548;8.658;2023-03-26T06:23:02;99311.13;;;8.53;100.00
29121;BME280;16191;49.548;8.658;2023-03-26T06:25:45;99309.06;;;8.59;100.00
29121;BME280;16191;49.548;8.658;2023-03-26T06:28:21;99304.72;;;8.60;100.00
29121;BME280;16191;49.548;8.658;2023-03-26T06:31:01;99300.28;;;8.62;100.00
29121;BME280;16191;49.548;8.658;2023-03-26T06:33:34;99289.81;;;8.64;100.00
29121;BME280;16191;49.548;8.658;2023-03-26T06:36:01;99286.72;;;8.55;100.00
29121;BME280;16191;49.548;8.658;2023-03-26T06:38:28;99286.44;;;8.62;100.00
29121;BME280;16191;49.548;8.658;2023-03-26T06:41:06;99284.38;;;8.68;100.00
29121;BME280;16191;49.548;8.658;2023-03-26T06:43:53;99294.84;;;8.67;100.00
29121;BME280;16191;49.548;8.658;2023-03-26T06:46:55;99285.31;;;8.48;100.00
29121;BME280;16191;49.548;8.658;2023-03-26T06:49:57;99278.91;;;8.38;100.00
29121;BME280;16191;49.548;8.658;2023-03-26T06:52:29;99272.47;;;8.45;100.00
29121;BME280;16191;49.548;8.658;2023-03-26T06:55:07;99266.28;;;8.48;100.00
29121;BME280;16191;49.548;8.658;2023-03-26T06:57:54;99267.06;;;8.50;100.00
29121;BME280;16191;49.548;8.658;2023-03-26T07:00:40;99272.34;;;8.48;100.00
29121;BME280;16191;49.548;8.658;2023-03-26T07:03:28;99263.22;;;8.40;100.00
29121;BME280;16191;49.548;8.658;2023-03-26T07:06:13;99266.69;;;8.40;100.00
29121;BME280;16191;49.548;8.658;2023-03-26T07:09:00;99254.06;;;8.31;100.00
29121;BME280;16191;49.548;8.658;2023-03-26T07:11:41;99265.38;;;8.30;100.00
29121;BME280;16191;49.548;8.658;2023-03-26T07:14:23;99254.88;;;8.33;100.00
29121;BME280;16191;49.548;8.658;2023-03-26T07:17:03;99246.47;;;8.26;100.00
29121;BME280;16191;49.548;8.658;2023-03-26T07:19:45;99236.41;;;8.20;100.00
29121;BME280;16191;49.548;8.658;2023-03-26T07:22:20;99235.84;;;8.33;100.00
29121;BME280;16191;49.548;8.658;2023-03-26T07:25:03;99230.88;;;8.26;100.00
29121;BME280;16191;49.548;8.658;2023-03-26T07:34:36;99212.84;;;8.23;100.00
29121;BME280;16191;49.548;8.658;2023-03-26T07:37:55;99218.72;;;8.27;100.00
29121;BME280;16191;49.548;8.658;2023-03-26T07:47:28;99210.03;;;8.28;100.00
29121;BME280;16191;49.548;8.658;2023-03-26T07:50:17;99200.22;;;8.35;100.00
29121;BME280;16191;49.548;8.658;2023-03-26T07:52:59;99202.53;;;8.41;100.00
29121;BME280;16191;49.548;8.658;2023-03-26T08:02:37;99198.09;;;8.43;100.00
29121;BME280;16191;49.548;8.658;2023-03-26T08:05:34;99200.53;;;8.46;100.00
29121;BME280;16191;49.548;8.658;2023-03-26T08:17:38;99222.16;;;8.46;100.00
29121;BME280;16191;49.548;8.658;2023-03-26T08:20:31;99218.25;;;8.38;100.00
29121;BME280;16191;49.548;8.658;2023-03-26T08:23:07;99230.03;;;8.26;100.00
29121;BME280;16191;49.548;8.658;2023-03-26T08:26:08;99239.63;;;8.07;100.00
29121;BME280;16191;49.548;8.658;2023-03-26T08:29:00;99239.41;;;8.11;100.00
29121;BME280;16191;49.548;8.658;2023-03-26T08:31:34;99259.88;;;8.00;100.00
29121;BME280;16191;49.548;8.658;2023-03-26T08:34:02;99250.38;;;7.99;100.00
29121;BME280;16191;49.548;8.658;2023-03-26T08:36:28;99250.16;;;8.04;100.00
29121;BME280;16191;49.548;8.658;2023-03-26T08:38:55;99250.47;;;7.98;100.00
29121;BME280;16191;49.548;8.658;2023-03-26T08:42:07;99240.47;;;8.07;100.00
29121;BME280;16191;49.548;8.658;2023-03-26T08:44:59;99230.22;;;8.04;100.00
29121;BME280;16191;49.548;8.658;2023-03-26T08:51:10;99241.97;;;7.94;100.00
29121;BME280;16191;49.548;8.658;2023-03-26T08:56:53;99200.84;;;8.02;100.00
29121;BME280;16191;49.548;8.658;2023-03-26T09:07:25;99196.09;;;8.12;100.00
29121;BME280;16191;49.548;8.658;2023-03-26T09:37:05;99124.81;;;9.19;100.00
29121;BME280;16191;49.548;8.658;2023-03-26T09:40:27;99122.03;;;9.22;100.00
29121;BME280;16191;49.548;8.658;2023-03-26T09:48:29;99117.16;;;9.16;100.00
29121;BME280;16191;49.548;8.658;2023-03-26T09:51:37;99107.66;;;9.31;100.00
29121;BME280;16191;49.548;8.658;2023-03-26T10:11:06;99078.41;;;10.05;100.00
29121;BME280;16191;49.548;8.658;2023-03-26T10:13:55;99074.41;;;10.59;100.00
29121;BME280;16191;49.548;8.658;2023-03-26T10:16:32;99083.44;;;10.68;100.00
29121;BME280;16191;49.548;8.658;2023-03-26T10:19:26;99070.84;;;11.17;100.00
29121;BME280;16191;49.548;8.658;2023-03-26T10:30:55;99060.47;;;11.85;100.00
29121;BME280;16191;49.548;8.658;2023-03-26T10:36:28;99075.34;;;11.56;100.00
29121;BME280;16191;49.548;8.658;2023-03-26T10:39:24;99061.78;;;11.78;100.00
29121;BME280;16191;49.548;8.658;2023-03-26T10:48:50;99068.94;;;11.88;100.00
29121;BME280;16191;49.548;8.658;2023-03-26T10:51:49;99052.63;;;11.71;100.00
29121;BME280;16191;49.548;8.658;2023-03-26T10:57:32;99065.41;;;11.34;100.00
29121;BME280;16191;49.548;8.658;2023-03-26T11:02:43;99079.31;;;10.63;100.00
29121;BME280;16191;49.548;8.658;2023-03-26T11:05:26;99078.38;;;10.64;100.00
29121;BME280;16191;49.548;8.658;2023-03-26T11:08:05;99075.03;;;10.62;100.00
29121;BME280;16191;49.548;8.658;2023-03-26T11:13:17;99076.91;;;10.60;100.00
29121;BME280;16191;49.548;8.658;2023-03-26T11:16:17;99066.34;;;10.62;100.00
29121;BME280;16191;49.548;8.658;2023-03-26T11:18:59;99070.28;;;10.69;100.00
29121;BME280;16191;49.548;8.658;2023-03-26T11:21:45;99061.44;;;11.14;100.00
29121;BME280;16191;49.548;8.658;2023-03-26T11:24:35;99059.38;;;11.60;100.00
29121;BME280;16191;49.548;8.658;2023-03-26T11:27:21;99052.44;;;11.88;100.00
29121;BME280;16191;49.548;8.658;2023-03-26T11:32:38;99052.84;;;11.94;100.00
29121;BME280;16191;49.548;8.658;2023-03-26T11:35:06;99047.91;;;12.29;100.00
29121;BME280;16191;49.548;8.658;2023-03-26T11:37:40;99053.53;;;12.11;100.00
29121;BME280;16191;49.548;8.658;2023-03-26T11:40:19;99039.34;;;12.78;100.00
29121;BME280;16191;49.548;8.658;2023-03-26T11:42:58;99029.72;;;12.91;100.00
29121;BME280;16191;49.548;8.658;2023-03-26T11:45:28;99024.91;;;12.73;100.00
29121;BME280;16191;49.548;8.658;2023-03-26T11:49:24;99032.97;;;12.57;100.00
29121;BME280;16191;49.548;8.658;2023-03-26T11:51:26;99027.72;;;12.57;100.00
29121;BME280;16191;49.548;8.658;2023-03-26T11:53:54;99019.25;;;12.41;100.00
29121;BME280;16191;49.548;8.658;2023-03-26T11:56:30;99025.88;;;11.94;100.00
29121;BME280;16191;49.548;8.658;2023-03-26T11:59:05;99029.75;;;11.88;100.00
29121;BME280;16191;49.548;8.658;2023-03-26T12:01:57;99041.97;;;11.88;100.00
29121;BME280;16191;49.548;8.658;2023-03-26T12:04:39;99034.28;;;11.58;100.00
29121;BME280;16191;49.548;8.658;2023-03-26T12:09:56;99033.88;;;11.37;100.00
29121;BME280;16191;49.548;8.658;2023-03-26T12:12:45;99063.78;;;10.90;100.00
29121;BME280;16191;49.548;8.658;2023-03-26T12:15:17;99051.66;;;10.75;100.00
29121;BME280;16191;49.548;8.658;2023-03-26T12:17:47;99069.19;;;10.73;100.00
29121;BME280;16191;49.548;8.658;2023-03-26T12:22:54;99058.66;;;10.89;100.00
29121;BME280;16191;49.548;8.658;2023-03-26T12:25:35;99049.22;;;10.86;100.00
29121;BME280;16191;49.548;8.658;2023-03-26T12:30:41;99051.88;;;11.42;100.00
29121;BME280;16191;49.548;8.658;2023-03-26T12:33:36;99042.44;;;12.07;100.00
29121;BME280;16191;49.548;8.658;2023-03-26T12:36:16;99041.66;;;12.45;100.00
29121;BME280;16191;49.548;8.658;2023-03-26T12:38:44;99046.47;;;12.76;100.00
29121;BME280;16191;49.548;8.658;2023-03-26T12:41:38;99040.97;;;12.03;100.00
29121;BME280;16191;49.548;8.658;2023-03-26T12:44:55;99029.72;;;12.53;100.00
29121;BME280;16191;49.548;8.658;2023-03-26T12:47:32;99032.97;;;12.44;100.00
29121;BME280;16191;49.548;8.658;2023-03-26T12:50:22;99025.31;;;12.66;100.00
29121;BME280;16191;49.548;8.658;2023-03-26T12:55:58;99017.47;;;12.41;100.00
29121;BME280;16191;49.548;8.658;2023-03-26T12:58:55;99016.69;;;12.14;98.12
29121;BME280;16191;49.548;8.658;2023-03-26T13:10:06;99003.84;;;12.87;85.09
29121;BME280;16191;49.548;8.658;2023-03-26T13:12:44;99009.91;;;12.87;89.95
29121;BME280;16191;49.548;8.658;2023-03-26T13:18:09;99005.84;;;12.58;80.87
29121;BME280;16191;49.548;8.658;2023-03-26T13:35:06;98992.16;;;13.53;74.63
29121;BME280;16191;49.548;8.658;2023-03-26T13:37:36;98981.56;;;13.30;68.58
29121;BME280;16191;49.548;8.658;2023-03-26T13:46:26;98977.88;;;12.96;68.86
29121;BME280;16191;49.548;8.658;2023-03-26T13:49:01;98973.94;;;13.15;72.04
29121;BME280;16191;49.548;8.658;2023-03-26T13:51:47;98980.69;;;12.81;66.13
29121;BME280;16191;49.548;8.658;2023-03-26T13:54:22;98978.53;;;12.75;68.65
29121;BME280;16191;49.548;8.658;2023-03-26T13:59:43;98966.38;;;12.74;68.79
29121;BME280;16191;49.548;8.658;2023-03-26T14:05:22;98960.22;;;12.62;63.52
29121;BME280;16191;49.548;8.658;2023-03-26T14:10:46;98949.94;;;12.59;63.78
29121;BME280;16191;49.548;8.658;2023-03-26T14:13:31;98945.75;;;12.69;63.97
29121;BME280;16191;49.548;8.658;2023-03-26T14:24:04;98936.13;;;12.57;65.25
29121;BME280;16191;49.548;8.658;2023-03-26T14:49:04;98923.88;;;12.57;65.77
29121;BME280;16191;49.548;8.658;2023-03-26T14:51:50;98924.53;;;12.61;64.49
29121;BME280;16191;49.548;8.658;2023-03-26T14:54:23;98967.66;;;12.43;63.40
29121;BME280;16191;49.548;8.658;2023-03-26T15:00:20;98921.63;;;12.15;65.92
29121;BME280;16191;49.548;8.658;2023-03-26T15:03:23;98930.09;;;11.93;67.24
29121;BME280;16191;49.548;8.658;2023-03-26T15:12:02;98952.09;;;11.37;72.80
29121;BME280;16191;49.548;8.658;2023-03-26T15:17:57;98961.34;;;11.28;77.90
29121;BME280;16191;49.548;8.658;2023-03-26T15:20:46;98956.03;;;11.03;82.77
29121;BME280;16191;49.548;8.658;2023-03-26T15:37:49;99017.09;;;10.57;92.79
29121;BME280;16191;49.548;8.658;2023-03-26T15:45:51;98994.06;;;10.64;98.36
29121;BME280;16191;49.548;8.658;2023-03-26T15:49:07;98989.03;;;10.47;98.81
29121;BME280;16191;49.548;8.658;2023-03-26T15:54:36;98989.78;;;10.49;100.00
29121;BME280;16191;49.548;8.658;2023-03-26T15:57:22;98995.63;;;10.24;100.00
29121;BME280;16191;49.548;8.658;2023-03-26T16:00:00;98999.59;;;10.15;100.00
29121;BME280;16191;49.548;8.658;2023-03-26T16:02:43;99014.66;;;10.10;100.00
29121;BME280;16191;49.548;8.658;2023-03-26T16:08:06;99015.09;;;10.03;100.00
29121;BME280;16191;49.548;8.658;2023-03-26T16:10:56;99020.56;;;9.98;100.00
29121;BME280;16191;49.548;8.658;2023-03-26T16:18:44;99034.00;;;9.76;100.00
29121;BME280;16191;49.548;8.658;2023-03-26T16:43:11;99065.28;;;9.29;100.00
29121;BME280;16191;49.548;8.658;2023-03-26T16:45:53;99070.41;;;9.31;100.00
29121;BME280;16191;49.548;8.658;2023-03-26T16:48:28;99072.25;;;9.28;100.00
29121;BME280;16191;49.548;8.658;2023-03-26T16:51:15;99075.88;;;9.26;100.00
29121;BME280;16191;49.548;8.658;2023-03-26T16:53:58;99086.66;;;9.03;100.00
29121;BME280;16191;49.548;8.658;2023-03-26T17:02:42;99075.94;;;9.09;100.00
29121;BME280;16191;49.548;8.658;2023-03-26T17:07:56;99079.16;;;8.97;100.00
29121;BME280;16191;49.548;8.658;2023-03-26T17:10:39;99079.34;;;8.93;100.00
29121;BME280;16191;49.548;8.658;2023-03-26T17:13:16;99078.50;;;8.93;100.00
29121;BME280;16191;49.548;8.658;2023-03-26T17:16:03;99075.72;;;8.96;100.00
29121;BME280;16191;49.548;8.658;2023-03-26T17:18:44;99081.50;;;8.85;100.00
29121;BME280;16191;49.548;8.658;2023-03-26T17:21:40;99080.66;;;8.85;100.00
29121;BME280;16191;49.548;8.658;2023-03-26T17:27:24;99084.72;;;8.73;100.00
29121;BME280;16191;49.548;8.658;2023-03-26T17:30:25;99084.56;;;8.76;100.00
29121;BME280;16191;49.548;8.658;2023-03-26T17:35:48;99088.03;;;8.77;100.00
29121;BME280;16191;49.548;8.658;2023-03-26T17:40:54;99090.00;;;8.72;100.00
29121;BME280;16191;49.548;8.658;2023-03-26T17:43:51;99078.75;;;8.71;100.00
29121;BME280;16191;49.548;8.658;2023-03-26T17:46:43;99074.63;;;8.67;100.00
29121;BME280;16191;49.548;8.658;2023-03-26T17:49:18;99077.25;;;8.67;100.00
29121;BME280;16191;49.548;8.658;2023-03-26T17:51:51;99077.72;;;8.58;100.00
29121;BME280;16191;49.548;8.658;2023-03-26T17:54:32;99076.28;;;8.52;100.00
29121;BME280;16191;49.548;8.658;2023-03-26T17:57:04;99077.13;;;8.53;100.00
29121;BME280;16191;49.548;8.658;2023-03-26T17:59:32;99076.28;;;8.52;100.00
29121;BME280;16191;49.548;8.658;2023-03-26T18:02:04;99081.41;;;8.54;100.00
29121;BME280;16191;49.548;8.658;2023-03-26T18:04:39;99079.03;;;8.49;100.00
29121;BME280;16191;49.548;8.658;2023-03-26T18:13:11;99092.34;;;8.43;100.00
29121;BME280;16191;49.548;8.658;2023-03-26T18:20:50;99093.03;;;8.47;100.00
29121;BME280;16191;49.548;8.658;2023-03-26T18:23:24;99099.38;;;8.41;100.00
29121;BME280;16191;49.548;8.658;2023-03-26T18:25:56;99100.53;;;8.36;100.00
29121;BME280;16191;49.548;8.658;2023-03-26T18:28:34;99097.28;;;8.31;100.00
29121;BME280;16191;49.548;8.658;2023-03-26T18:31:15;99104.31;;;8.29;100.00
29121;BME280;16191;49.548;8.658;2023-03-26T18:33:44;99100.88;;;8.28;100.00
29121;BME280;16191;49.548;8.658;2023-03-26T18:36:13;99112.56;;;8.19;100.00
29121;BME280;16191;49.548;8.658;2023-03-26T18:38:39;99111.59;;;8.22;100.00
29121;BME280;16191;49.548;8.658;2023-03-26T18:41:24;99107.44;;;8.18;100.00
29121;BME280;16191;49.548;8.658;2023-03-26T18:43:53;99113.41;;;8.20;100.00
29121;BME280;16191;49.548;8.658;2023-03-26T18:46:21;99113.56;;;8.17;100.00
29121;BME280;16191;49.548;8.658;2023-03-26T18:48:49;99114.09;;;8.23;100.00
29121;BME280;16191;49.548;8.658;2023-03-26T18:51:17;99111.88;;;8.16;100.00
29121;BME280;16191;49.548;8.658;2023-03-26T18:53:52;99098.81;;;8.17;100.00
29121;BME280;16191;49.548;8.658;2023-03-26T18:56:41;99105.44;;;8.23;100.00
29121;BME280;16191;49.548;8.658;2023-03-26T18:59:31;99096.00;;;8.22;100.00
29121;BME280;16191;49.548;8.658;2023-03-26T19:02:03;99083.91;;;8.21;100.00
29121;BME280;16191;49.548;8.658;2023-03-26T19:04:31;99082.16;;;8.21;100.00
29121;BME280;16191;49.548;8.658;2023-03-26T19:07:04;99089.03;;;8.22;100.00
29121;BME280;16191;49.548;8.658;2023-03-26T19:09:32;99088.09;;;8.23;100.00
29121;BME280;16191;49.548;8.658;2023-03-26T19:12:06;99078.94;;;8.16;100.00
29121;BME280;16191;49.548;8.658;2023-03-26T19:14:33;99080.28;;;8.23;100.00
29121;BME280;16191;49.548;8.658;2023-03-26T19:17:04;99090.19;;;8.17;100.00
29121;BME280;16191;49.548;8.658;2023-03-26T19:19:35;99083.38;;;8.14;100.00